sensor_id;sensor_type;location;lat;lon;timestamp;P1;durP1;ratioP1;P2;durP2;ratioP2
45760;SDS011;31471;51.040;14.414;2022-10-16T00:01:17;10.02;;;7.50;;
45760;SDS011;31471;51.040;14.414;2022-10-16T00:03:45;9.52;;;8.15;;
45760;SDS011;31471;51.040;14.414;2022-10-16T00:06:12;10.98;;;8.65;;
45760;SDS011;31471;51.040;14.414;2022-10-16T00:08:38;11.40;;;9.10;;
45760;SDS011;31471;51.040;14.414;2022-10-16T00:11:09;12.93;;;9.07;;
45760;SDS011;31471;51.040;14.414;2022-10-16T00:13:38;11.10;;;9.65;;
45760;SDS011;31471;51.040;14.414;2022-10-16T00:16:05;12.07;;;8.85;;
45760;SDS011;31471;51.040;14.414;2022-10-16T00:18:31;12.65;;;9.82;;
45760;SDS011;31471;51.040;14.414;2022-10-16T00:21:01;13.70;;;10.77;;
45760;SDS011;31471;51.040;14.414;2022-10-16T00:23:28;12.73;;;10.50;;
45760;SDS011;31471;51.040;14.414;2022-10-16T00:25:54;14.82;;;10.23;;
45760;SDS011;31471;51.040;14.414;2022-10-16T00:28:21;12.77;;;10.43;;
45760;SDS011;31471;51.040;14.414;2022-10-16T00:30:47;12.32;;;10.52;;
45760;SDS011;31471;51.040;14.414;2022-10-16T00:33:13;15.18;;;10.15;;
45760;SDS011;31471;51.040;14.414;2022-10-16T00:35:38;14.27;;;11.38;;
45760;SDS011;31471;51.040;14.414;2022-10-16T00:38:04;16.80;;;11.13;;
45760;SDS011;31471;51.040;14.414;2022-10-16T00:40:30;16.25;;;11.90;;
45760;SDS011;31471;51.040;14.414;2022-10-16T00:42:56;14.00;;;11.82;;
45760;SDS011;31471;51.040;14.414;2022-10-16T00:45:22;15.50;;;11.80;;
45760;SDS011;31471;51.040;14.414;2022-10-16T00:47:48;14.90;;;10.88;;
45760;SDS011;31471;51.040;14.414;2022-10-16T00:50:30;16.65;;;12.15;;
45760;SDS011;31471;51.040;14.414;2022-10-16T00:52:58;14.82;;;11.63;;
45760;SDS011;31471;51.040;14.414;2022-10-16T00:55:25;15.70;;;11.60;;
45760;SDS011;31471;51.040;14.414;2022-10-16T00:57:53;16.98;;;12.40;;
45760;SDS011;31471;51.040;14.414;2022-10-16T01:00:23;14.07;;;11.35;;
45760;SDS011;31471;51.040;14.414;2022-10-16T01:02:54;15.95;;;12.35;;
45760;SDS011;31471;51.040;14.414;2022-10-16T01:08:44;14.52;;;11.85;;
45760;SDS011;31471;51.040;14.414;2022-10-16T01:11:28;16.77;;;11.85;;
45760;SDS011;31471;51.040;14.414;2022-10-16T01:14:11;14.77;;;11.65;;
45760;SDS011;31471;51.040;14.414;2022-10-16T01:16:46;15.07;;;11.65;;
45760;SDS011;31471;51.040;14.414;2022-10-16T01:22:05;16.30;;;11.35;;
45760;SDS011;31471;51.040;14.414;2022-10-16T01:24:40;16.95;;;12.25;;
45760;SDS011;31471;51.040;14.414;2022-10-16T01:27:26;15.40;;;11.70;;
45760;SDS011;31471;51.040;14.414;2022-10-16T01:30:00;14.02;;;11.82;;
45760;SDS011;31471;51.040;14.414;2022-10-16T01:37:51;16.40;;;12.48;;
45760;SDS011;31471;51.040;14.414;2022-10-16T01:40:18;16.00;;;12.13;;
45760;SDS011;31471;51.040;14.414;2022-10-16T01:42:48;15.40;;;12.07;;
45760;SDS011;31471;51.040;14.414;2022-10-16T01:45:18;16.90;;;12.23;;
45760;SDS011;31471;51.040;14.414;2022-10-16T01:47:45;17.42;;;12.60;;
45760;SDS011;31471;51.040;14.414;2022-10-16T01:50:12;15.10;;;11.75;;
45760;SDS011;31471;51.040;14.414;2022-10-16T01:52:42;16.58;;;12.18;;
45760;SDS011;31471;51.040;14.414;2022-10-16T01:55:10;15.75;;;12.15;;
45760;SDS011;31471;51.040;14.414;2022-10-16T01:57:39;15.65;;;11.52;;
45760;SDS011;31471;51.040;14.414;2022-10-16T02:00:10;14.48;;;11.95;;
45760;SDS011;31471;51.040;14.414;2022-10-16T02:02:39;14.95;;;11.20;;
45760;SDS011;31471;51.040;14.414;2022-10-16T02:05:15;16.80;;;11.35;;
45760;SDS011;31471;51.040;14.414;2022-10-16T02:07:46;17.35;;;11.75;;
45760;SDS011;31471;51.040;14.414;2022-10-16T02:10:13;13.85;;;11.30;;
45760;SDS011;31471;51.040;14.414;2022-10-16T02:12:40;16.13;;;12.13;;
45760;SDS011;31471;51.040;14.414;2022-10-16T02:15:10;15.48;;;11.55;;
45760;SDS011;31471;51.040;14.414;2022-10-16T02:17:36;14.10;;;11.05;;
45760;SDS011;31471;51.040;14.414;2022-10-16T02:20:02;14.18;;;10.70;;
45760;SDS011;31471;51.040;14.414;2022-10-16T02:22:33;13.85;;;11.05;;
45760;SDS011;31471;51.040;14.414;2022-10-16T02:25:08;15.57;;;10.88;;
45760;SDS011;31471;51.040;14.414;2022-10-16T02:27:55;13.15;;;10.57;;
45760;SDS011;31471;51.040;14.414;2022-10-16T02:30:39;16.55;;;11.05;;
45760;SDS011;31471;51.040;14.414;2022-10-16T02:33:13;13.13;;;10.52;;
45760;SDS011;31471;51.040;14.414;2022-10-16T02:35:41;14.07;;;9.82;;
45760;SDS011;31471;51.040;14.414;2022-10-16T02:38:10;17.13;;;10.70;;
45760;SDS011;31471;51.040;14.414;2022-10-16T02:40:36;12.73;;;10.05;;
45760;SDS011;31471;51.040;14.414;2022-10-16T02:45:29;11.77;;;9.63;;
45760;SDS011;31471;51.040;14.414;2022-10-16T02:47:54;16.38;;;9.80;;
45760;SDS011;31471;51.040;14.414;2022-10-16T02:50:20;13.10;;;9.40;;
45760;SDS011;31471;51.040;14.414;2022-10-16T02:52:46;14.95;;;10.10;;
45760;SDS011;31471;51.040;14.414;2022-10-16T02:55:11;13.45;;;9.68;;
45760;SDS011;31471;51.040;14.414;2022-10-16T02:57:37;11.55;;;9.85;;
45760;SDS011;31471;51.040;14.414;2022-10-16T03:00:05;15.30;;;10.60;;
45760;SDS011;31471;51.040;14.414;2022-10-16T03:02:34;12.73;;;10.02;;
45760;SDS011;31471;51.040;14.414;2022-10-16T03:05:00;13.82;;;10.05;;
45760;SDS011;31471;51.040;14.414;2022-10-16T03:07:26;13.35;;;9.73;;
45760;SDS011;31471;51.040;14.414;2022-10-16T03:09:51;11.85;;;9.68;;
45760;SDS011;31471;51.040;14.414;2022-10-16T03:12:17;11.77;;;9.68;;
45760;SDS011;31471;51.040;14.414;2022-10-16T03:14:42;12.82;;;8.88;;
45760;SDS011;31471;51.040;14.414;2022-10-16T03:17:08;12.32;;;9.07;;
45760;SDS011;31471;51.040;14.414;2022-10-16T03:19:34;15.80;;;9.80;;
45760;SDS011;31471;51.040;14.414;2022-10-16T03:22:00;11.98;;;9.10;;
45760;SDS011;31471;51.040;14.414;2022-10-16T03:26:52;13.05;;;8.68;;
45760;SDS011;31471;51.040;14.414;2022-10-16T03:29:18;10.38;;;8.43;;
45760;SDS011;31471;51.040;14.414;2022-10-16T03:31:43;11.40;;;8.63;;
45760;SDS011;31471;51.040;14.414;2022-10-16T03:34:09;8.82;;;7.93;;
45760;SDS011;31471;51.040;14.414;2022-10-16T03:36:35;8.80;;;7.88;;
45760;SDS011;31471;51.040;14.414;2022-10-16T03:39:00;9.02;;;7.82;;
45760;SDS011;31471;51.040;14.414;2022-10-16T03:41:26;10.15;;;8.10;;
45760;SDS011;31471;51.040;14.414;2022-10-16T03:43:51;8.32;;;7.38;;
45760;SDS011;31471;51.040;14.414;2022-10-16T03:46:17;9.88;;;7.15;;
45760;SDS011;31471;51.040;14.414;2022-10-16T03:48:43;9.88;;;7.50;;
45760;SDS011;31471;51.040;14.414;2022-10-16T03:51:08;9.27;;;6.60;;
45760;SDS011;31471;51.040;14.414;2022-10-16T03:53:34;9.30;;;7.18;;
45760;SDS011;31471;51.040;14.414;2022-10-16T03:58:25;9.10;;;6.40;;
45760;SDS011;31471;51.040;14.414;2022-10-16T04:00:51;8.30;;;7.10;;
45760;SDS011;31471;51.040;14.414;2022-10-16T04:03:17;7.85;;;6.75;;
45760;SDS011;31471;51.040;14.414;2022-10-16T04:05:44;8.55;;;6.40;;
45760;SDS011;31471;51.040;14.414;2022-10-16T04:08:09;7.60;;;6.30;;
45760;SDS011;31471;51.040;14.414;2022-10-16T04:10:35;9.05;;;6.03;;
45760;SDS011;31471;51.040;14.414;2022-10-16T04:13:00;8.15;;;6.55;;
45760;SDS011;31471;51.040;14.414;2022-10-16T04:15:26;7.97;;;6.45;;
45760;SDS011;31471;51.040;14.414;2022-10-16T04:17:52;8.40;;;6.32;;
45760;SDS011;31471;51.040;14.414;2022-10-16T04:20:18;6.95;;;6.25;;
45760;SDS011;31471;51.040;14.414;2022-10-16T04:22:43;8.68;;;6.10;;
45760;SDS011;31471;51.040;14.414;2022-10-16T04:25:09;8.80;;;5.78;;
45760;SDS011;31471;51.040;14.414;2022-10-16T04:27:36;7.18;;;6.18;;
45760;SDS011;31471;51.040;14.414;2022-10-16T04:30:02;7.15;;;6.10;;
45760;SDS011;31471;51.040;14.414;2022-10-16T04:32:28;7.53;;;5.85;;
45760;SDS011;31471;51.040;14.414;2022-10-16T04:34:54;8.43;;;6.28;;
45760;SDS011;31471;51.040;14.414;2022-10-16T04:37:23;7.03;;;5.85;;
45760;SDS011;31471;51.040;14.414;2022-10-16T04:39:52;6.13;;;5.53;;
45760;SDS011;31471;51.040;14.414;2022-10-16T04:42:18;6.95;;;5.85;;
45760;SDS011;31471;51.040;14.414;2022-10-16T04:44:44;6.95;;;5.45;;
45760;SDS011;31471;51.040;14.414;2022-10-16T04:47:10;6.72;;;5.55;;
45760;SDS011;31471;51.040;14.414;2022-10-16T04:49:36;7.95;;;5.90;;
45760;SDS011;31471;51.040;14.414;2022-10-16T04:52:02;6.05;;;5.20;;
45760;SDS011;31471;51.040;14.414;2022-10-16T04:54:28;7.07;;;5.55;;
45760;SDS011;31471;51.040;14.414;2022-10-16T04:56:53;7.50;;;5.30;;
45760;SDS011;31471;51.040;14.414;2022-10-16T04:59:19;5.90;;;5.28;;
45760;SDS011;31471;51.040;14.414;2022-10-16T05:01:45;5.82;;;4.85;;
45760;SDS011;31471;51.040;14.414;2022-10-16T05:04:11;6.20;;;5.10;;
45760;SDS011;31471;51.040;14.414;2022-10-16T05:06:37;10.50;;;4.97;;
45760;SDS011;31471;51.040;14.414;2022-10-16T05:09:04;5.75;;;4.85;;
45760;SDS011;31471;51.040;14.414;2022-10-16T05:11:30;14.55;;;6.53;;
45760;SDS011;31471;51.040;14.414;2022-10-16T05:13:56;6.65;;;4.53;;
45760;SDS011;31471;51.040;14.414;2022-10-16T05:16:21;5.18;;;4.55;;
45760;SDS011;31471;51.040;14.414;2022-10-16T05:18:47;7.22;;;4.57;;
45760;SDS011;31471;51.040;14.414;2022-10-16T05:21:13;9.90;;;4.68;;
45760;SDS011;31471;51.040;14.414;2022-10-16T05:23:38;7.13;;;4.95;;
45760;SDS011;31471;51.040;14.414;2022-10-16T05:26:04;6.50;;;4.22;;
45760;SDS011;31471;51.040;14.414;2022-10-16T05:28:30;8.13;;;5.47;;
45760;SDS011;31471;51.040;14.414;2022-10-16T05:30:56;5.55;;;4.93;;
45760;SDS011;31471;51.040;14.414;2022-10-16T05:33:24;8.02;;;4.88;;
45760;SDS011;31471;51.040;14.414;2022-10-16T05:35:50;5.55;;;4.78;;
45760;SDS011;31471;51.040;14.414;2022-10-16T05:38:16;6.32;;;4.70;;
45760;SDS011;31471;51.040;14.414;2022-10-16T05:40:42;6.97;;;5.00;;
45760;SDS011;31471;51.040;14.414;2022-10-16T05:43:15;9.02;;;5.03;;
45760;SDS011;31471;51.040;14.414;2022-10-16T05:45:40;8.30;;;5.97;;
45760;SDS011;31471;51.040;14.414;2022-10-16T05:48:06;7.65;;;5.97;;
45760;SDS011;31471;51.040;14.414;2022-10-16T05:50:31;9.13;;;5.90;;
45760;SDS011;31471;51.040;14.414;2022-10-16T05:52:57;12.13;;;8.98;;
45760;SDS011;31471;51.040;14.414;2022-10-16T05:55:22;8.32;;;7.40;;
45760;SDS011;31471;51.040;14.414;2022-10-16T05:57:48;10.93;;;8.07;;
45760;SDS011;31471;51.040;14.414;2022-10-16T06:00:14;28.33;;;13.77;;
45760;SDS011;31471;51.040;14.414;2022-10-16T06:02:39;11.70;;;8.43;;
45760;SDS011;31471;51.040;14.414;2022-10-16T06:05:05;17.92;;;9.52;;
45760;SDS011;31471;51.040;14.414;2022-10-16T06:07:33;11.15;;;7.80;;
45760;SDS011;31471;51.040;14.414;2022-10-16T06:10:00;9.60;;;8.52;;
45760;SDS011;31471;51.040;14.414;2022-10-16T06:12:26;9.80;;;8.80;;
45760;SDS011;31471;51.040;14.414;2022-10-16T06:17:17;9.85;;;7.95;;
45760;SDS011;31471;51.040;14.414;2022-10-16T06:19:43;8.88;;;7.97;;
45760;SDS011;31471;51.040;14.414;2022-10-16T06:22:09;15.90;;;9.82;;
45760;SDS011;31471;51.040;14.414;2022-10-16T06:27:00;12.05;;;8.57;;
45760;SDS011;31471;51.040;14.414;2022-10-16T06:29:26;9.45;;;8.43;;
45760;SDS011;31471;51.040;14.414;2022-10-16T06:31:51;9.77;;;8.40;;
45760;SDS011;31471;51.040;14.414;2022-10-16T06:34:17;11.45;;;9.43;;
45760;SDS011;31471;51.040;14.414;2022-10-16T06:36:43;10.32;;;8.40;;
45760;SDS011;31471;51.040;14.414;2022-10-16T06:39:09;9.13;;;8.07;;
45760;SDS011;31471;51.040;14.414;2022-10-16T06:41:34;11.55;;;8.52;;
45760;SDS011;31471;51.040;14.414;2022-10-16T06:44:13;11.88;;;8.95;;
45760;SDS011;31471;51.040;14.414;2022-10-16T06:46:39;10.90;;;9.10;;
45760;SDS011;31471;51.040;14.414;2022-10-16T06:49:04;11.57;;;9.35;;
45760;SDS011;31471;51.040;14.414;2022-10-16T06:51:30;10.40;;;8.45;;
45760;SDS011;31471;51.040;14.414;2022-10-16T06:53:58;10.45;;;8.43;;
45760;SDS011;31471;51.040;14.414;2022-10-16T06:56:25;9.60;;;8.60;;
45760;SDS011;31471;51.040;14.414;2022-10-16T06:58:52;9.23;;;7.47;;
45760;SDS011;31471;51.040;14.414;2022-10-16T07:01:19;9.38;;;8.32;;
45760;SDS011;31471;51.040;14.414;2022-10-16T07:03:46;8.40;;;7.43;;
45760;SDS011;31471;51.040;14.414;2022-10-16T07:06:13;8.50;;;7.53;;
45760;SDS011;31471;51.040;14.414;2022-10-16T07:08:41;9.30;;;7.30;;
45760;SDS011;31471;51.040;14.414;2022-10-16T07:11:09;10.13;;;7.70;;
45760;SDS011;31471;51.040;14.414;2022-10-16T07:13:37;10.35;;;7.75;;
45760;SDS011;31471;51.040;14.414;2022-10-16T07:16:13;7.40;;;6.70;;
45760;SDS011;31471;51.040;14.414;2022-10-16T07:18:41;8.70;;;7.63;;
45760;SDS011;31471;51.040;14.414;2022-10-16T07:23:35;8.80;;;7.40;;
45760;SDS011;31471;51.040;14.414;2022-10-16T07:26:01;10.80;;;7.40;;
45760;SDS011;31471;51.040;14.414;2022-10-16T07:28:28;8.23;;;7.43;;
45760;SDS011;31471;51.040;14.414;2022-10-16T07:30:54;9.57;;;7.57;;
45760;SDS011;31471;51.040;14.414;2022-10-16T07:35:52;8.93;;;6.97;;
45760;SDS011;31471;51.040;14.414;2022-10-16T07:38:20;7.70;;;6.88;;
45760;SDS011;31471;51.040;14.414;2022-10-16T07:40:46;7.32;;;6.32;;
45760;SDS011;31471;51.040;14.414;2022-10-16T07:43:13;7.90;;;7.07;;
45760;SDS011;31471;51.040;14.414;2022-10-16T07:45:46;7.63;;;6.93;;
45760;SDS011;31471;51.040;14.414;2022-10-16T07:48:13;7.93;;;6.53;;
45760;SDS011;31471;51.040;14.414;2022-10-16T07:50:39;9.50;;;7.25;;
45760;SDS011;31471;51.040;14.414;2022-10-16T07:55:31;8.73;;;7.35;;
45760;SDS011;31471;51.040;14.414;2022-10-16T07:57:56;7.45;;;6.85;;
45760;SDS011;31471;51.040;14.414;2022-10-16T08:02:47;7.40;;;6.13;;
45760;SDS011;31471;51.040;14.414;2022-10-16T08:05:13;6.55;;;5.85;;
45760;SDS011;31471;51.040;14.414;2022-10-16T08:10:04;7.88;;;5.90;;
45760;SDS011;31471;51.040;14.414;2022-10-16T08:12:30;6.65;;;5.90;;
45760;SDS011;31471;51.040;14.414;2022-10-16T08:14:55;6.57;;;5.97;;
45760;SDS011;31471;51.040;14.414;2022-10-16T08:19:46;6.55;;;5.55;;
45760;SDS011;31471;51.040;14.414;2022-10-16T08:24:38;6.05;;;5.53;;
45760;SDS011;31471;51.040;14.414;2022-10-16T08:27:04;8.27;;;5.85;;
45760;SDS011;31471;51.040;14.414;2022-10-16T08:31:55;6.28;;;5.20;;
45760;SDS011;31471;51.040;14.414;2022-10-16T08:36:47;5.05;;;4.55;;
45760;SDS011;31471;51.040;14.414;2022-10-16T08:42:00;4.55;;;4.15;;
45760;SDS011;31471;51.040;14.414;2022-10-16T08:50:21;4.43;;;3.80;;
45760;SDS011;31471;51.040;14.414;2022-10-16T08:52:53;4.30;;;3.72;;
45760;SDS011;31471;51.040;14.414;2022-10-16T09:00:14;5.03;;;3.80;;
45760;SDS011;31471;51.040;14.414;2022-10-16T09:02:50;8.57;;;4.53;;
45760;SDS011;31471;51.040;14.414;2022-10-16T09:05:28;4.65;;;3.17;;
45760;SDS011;31471;51.040;14.414;2022-10-16T09:08:03;3.53;;;3.22;;
45760;SDS011;31471;51.040;14.414;2022-10-16T09:11:04;4.70;;;3.28;;
45760;SDS011;31471;51.040;14.414;2022-10-16T09:14:15;4.60;;;4.00;;
45760;SDS011;31471;51.040;14.414;2022-10-16T09:19:58;4.22;;;3.00;;
45760;SDS011;31471;51.040;14.414;2022-10-16T09:22:46;3.85;;;3.17;;
45760;SDS011;31471;51.040;14.414;2022-10-16T09:27:44;3.50;;;3.20;;
45760;SDS011;31471;51.040;14.414;2022-10-16T09:30:13;4.88;;;3.45;;
45760;SDS011;31471;51.040;14.414;2022-10-16T09:32:40;4.60;;;3.15;;
45760;SDS011;31471;51.040;14.414;2022-10-16T09:35:13;3.55;;;3.13;;
45760;SDS011;31471;51.040;14.414;2022-10-16T09:37:42;3.60;;;3.08;;
45760;SDS011;31471;51.040;14.414;2022-10-16T09:40:23;4.18;;;3.78;;
45760;SDS011;31471;51.040;14.414;2022-10-16T09:43:02;5.32;;;3.95;;
45760;SDS011;31471;51.040;14.414;2022-10-16T09:48:31;4.97;;;3.80;;
45760;SDS011;31471;51.040;14.414;2022-10-16T09:51:18;4.13;;;3.72;;
45760;SDS011;31471;51.040;14.414;2022-10-16T09:54:10;3.88;;;3.50;;
45760;SDS011;31471;51.040;14.414;2022-10-16T09:56:39;3.92;;;3.60;;
45760;SDS011;31471;51.040;14.414;2022-10-16T09:59:10;4.38;;;3.97;;
45760;SDS011;31471;51.040;14.414;2022-10-16T10:01:50;3.92;;;3.60;;
45760;SDS011;31471;51.040;14.414;2022-10-16T10:04:22;5.32;;;4.30;;
45760;SDS011;31471;51.040;14.414;2022-10-16T10:06:50;3.75;;;3.45;;
45760;SDS011;31471;51.040;14.414;2022-10-16T10:09:24;3.50;;;3.20;;
45760;SDS011;31471;51.040;14.414;2022-10-16T10:11:59;3.53;;;3.22;;
45760;SDS011;31471;51.040;14.414;2022-10-16T10:14:39;3.28;;;3.08;;
45760;SDS011;31471;51.040;14.414;2022-10-16T10:36:27;3.42;;;3.10;;
45760;SDS011;31471;51.040;14.414;2022-10-16T10:46:34;5.03;;;3.20;;
45760;SDS011;31471;51.040;14.414;2022-10-16T11:00:26;4.50;;;3.08;;
45760;SDS011;31471;51.040;14.414;2022-10-16T11:03:04;3.55;;;3.00;;
45760;SDS011;31471;51.040;14.414;2022-10-16T11:05:45;3.42;;;3.10;;
45760;SDS011;31471;51.040;14.414;2022-10-16T11:08:22;3.80;;;2.92;;
45760;SDS011;31471;51.040;14.414;2022-10-16T11:10:58;3.33;;;2.63;;
45760;SDS011;31471;51.040;14.414;2022-10-16T11:13:32;4.07;;;2.90;;
45760;SDS011;31471;51.040;14.414;2022-10-16T11:16:13;3.92;;;2.83;;
45760;SDS011;31471;51.040;14.414;2022-10-16T11:18:49;3.03;;;2.70;;
45760;SDS011;31471;51.040;14.414;2022-10-16T11:21:30;5.82;;;3.50;;
45760;SDS011;31471;51.040;14.414;2022-10-16T11:24:06;3.67;;;3.38;;
45760;SDS011;31471;51.040;14.414;2022-10-16T11:26:45;3.97;;;2.70;;
45760;SDS011;31471;51.040;14.414;2022-10-16T11:29:23;5.75;;;2.97;;
45760;SDS011;31471;51.040;14.414;2022-10-16T11:31:57;3.10;;;2.83;;
45760;SDS011;31471;51.040;14.414;2022-10-16T11:34:32;3.30;;;3.00;;
45760;SDS011;31471;51.040;14.414;2022-10-16T11:40:16;3.30;;;3.00;;
45760;SDS011;31471;51.040;14.414;2022-10-16T11:47:50;4.75;;;2.85;;
45760;SDS011;31471;51.040;14.414;2022-10-16T11:52:58;2.83;;;2.63;;
45760;SDS011;31471;51.040;14.414;2022-10-16T11:55:34;3.65;;;2.67;;
45760;SDS011;31471;51.040;14.414;2022-10-16T11:58:06;3.85;;;2.88;;
45760;SDS011;31471;51.040;14.414;2022-10-16T12:08:45;4.80;;;3.15;;
45760;SDS011;31471;51.040;14.414;2022-10-16T12:19:20;4.13;;;3.22;;
45760;SDS011;31471;51.040;14.414;2022-10-16T12:21:47;6.32;;;2.97;;
45760;SDS011;31471;51.040;14.414;2022-10-16T12:24:50;3.83;;;3.20;;
45760;SDS011;31471;51.040;14.414;2022-10-16T12:27:30;3.67;;;3.20;;
45760;SDS011;31471;51.040;14.414;2022-10-16T12:29:57;3.15;;;2.75;;
45760;SDS011;31471;51.040;14.414;2022-10-16T12:32:31;3.20;;;2.90;;
45760;SDS011;31471;51.040;14.414;2022-10-16T12:34:59;3.90;;;2.72;;
45760;SDS011;31471;51.040;14.414;2022-10-16T12:37:28;3.17;;;2.50;;
45760;SDS011;31471;51.040;14.414;2022-10-16T12:39:57;3.60;;;2.67;;
45760;SDS011;31471;51.040;14.414;2022-10-16T12:42:31;3.38;;;2.83;;
45760;SDS011;31471;51.040;14.414;2022-10-16T12:44:58;4.63;;;2.65;;
45760;SDS011;31471;51.040;14.414;2022-10-16T12:49:55;3.35;;;3.05;;
45760;SDS011;31471;51.040;14.414;2022-10-16T12:57:42;3.30;;;3.00;;
45760;SDS011;31471;51.040;14.414;2022-10-16T13:06:05;4.97;;;3.00;;
45760;SDS011;31471;51.040;14.414;2022-10-16T13:08:56;3.58;;;3.08;;
45760;SDS011;31471;51.040;14.414;2022-10-16T13:12:00;3.33;;;3.00;;
45760;SDS011;31471;51.040;14.414;2022-10-16T13:22:48;2.67;;;2.30;;
45760;SDS011;31471;51.040;14.414;2022-10-16T13:28:28;3.83;;;2.70;;
45760;SDS011;31471;51.040;14.414;2022-10-16T13:30:57;5.00;;;3.13;;
45760;SDS011;31471;51.040;14.414;2022-10-16T13:33:32;3.20;;;2.85;;
45760;SDS011;31471;51.040;14.414;2022-10-16T13:36:03;5.53;;;3.30;;
45760;SDS011;31471;51.040;14.414;2022-10-16T13:38:30;2.85;;;2.65;;
45760;SDS011;31471;51.040;14.414;2022-10-16T13:40:58;3.10;;;2.80;;
45760;SDS011;31471;51.040;14.414;2022-10-16T13:43:27;4.05;;;3.13;;
45760;SDS011;31471;51.040;14.414;2022-10-16T13:48:32;3.80;;;3.05;;
45760;SDS011;31471;51.040;14.414;2022-10-16T13:51:06;3.53;;;2.75;;
45760;SDS011;31471;51.040;14.414;2022-10-16T13:53:39;2.80;;;2.60;;
45760;SDS011;31471;51.040;14.414;2022-10-16T13:56:07;4.85;;;2.78;;
45760;SDS011;31471;51.040;14.414;2022-10-16T13:58:36;7.70;;;4.20;;
45760;SDS011;31471;51.040;14.414;2022-10-16T14:01:03;3.72;;;2.58;;
45760;SDS011;31471;51.040;14.414;2022-10-16T14:03:30;4.00;;;2.42;;
45760;SDS011;31471;51.040;14.414;2022-10-16T14:06:02;3.45;;;2.40;;
45760;SDS011;31471;51.040;14.414;2022-10-16T14:08:31;3.45;;;3.15;;
45760;SDS011;31471;51.040;14.414;2022-10-16T14:10:58;3.65;;;2.55;;
45760;SDS011;31471;51.040;14.414;2022-10-16T14:13:30;4.05;;;2.47;;
45760;SDS011;31471;51.040;14.414;2022-10-16T14:16:04;6.53;;;2.40;;
45760;SDS011;31471;51.040;14.414;2022-10-16T14:18:32;3.75;;;2.50;;
45760;SDS011;31471;51.040;14.414;2022-10-16T14:21:11;3.88;;;2.78;;
45760;SDS011;31471;51.040;14.414;2022-10-16T14:23:39;3.00;;;2.72;;
45760;SDS011;31471;51.040;14.414;2022-10-16T14:28:35;3.40;;;2.38;;
45760;SDS011;31471;51.040;14.414;2022-10-16T14:31:02;3.45;;;2.25;;
45760;SDS011;31471;51.040;14.414;2022-10-16T14:33:48;2.85;;;2.30;;
45760;SDS011;31471;51.040;14.414;2022-10-16T14:38:48;3.63;;;3.08;;
45760;SDS011;31471;51.040;14.414;2022-10-16T14:41:22;4.22;;;2.55;;
45760;SDS011;31471;51.040;14.414;2022-10-16T14:43:52;4.22;;;2.42;;
45760;SDS011;31471;51.040;14.414;2022-10-16T14:46:28;4.70;;;3.20;;
45760;SDS011;31471;51.040;14.414;2022-10-16T14:49:05;4.55;;;3.40;;
45760;SDS011;31471;51.040;14.414;2022-10-16T14:51:45;7.00;;;3.80;;
45760;SDS011;31471;51.040;14.414;2022-10-16T14:54:12;3.13;;;2.83;;
45760;SDS011;31471;51.040;14.414;2022-10-16T14:56:53;3.45;;;3.15;;
45760;SDS011;31471;51.040;14.414;2022-10-16T14:59:37;3.50;;;3.20;;
45760;SDS011;31471;51.040;14.414;2022-10-16T15:02:14;4.35;;;3.25;;
45760;SDS011;31471;51.040;14.414;2022-10-16T15:04:48;3.20;;;2.90;;
45760;SDS011;31471;51.040;14.414;2022-10-16T15:07:13;3.70;;;3.33;;
45760;SDS011;31471;51.040;14.414;2022-10-16T15:12:05;5.35;;;3.20;;
45760;SDS011;31471;51.040;14.414;2022-10-16T15:16:56;3.47;;;2.97;;
45760;SDS011;31471;51.040;14.414;2022-10-16T15:21:47;4.80;;;2.95;;
45760;SDS011;31471;51.040;14.414;2022-10-16T15:24:14;6.80;;;3.15;;
45760;SDS011;31471;51.040;14.414;2022-10-16T15:26:40;5.55;;;4.38;;
45760;SDS011;31471;51.040;14.414;2022-10-16T15:31:31;6.60;;;4.97;;
45760;SDS011;31471;51.040;14.414;2022-10-16T15:33:57;5.03;;;4.50;;
45760;SDS011;31471;51.040;14.414;2022-10-16T15:36:29;9.23;;;6.70;;
45760;SDS011;31471;51.040;14.414;2022-10-16T15:38:56;16.23;;;10.57;;
45760;SDS011;31471;51.040;14.414;2022-10-16T15:43:48;20.08;;;13.85;;
45760;SDS011;31471;51.040;14.414;2022-10-16T15:46:15;22.00;;;13.40;;
45760;SDS011;31471;51.040;14.414;2022-10-16T15:48:46;22.08;;;13.98;;
45760;SDS011;31471;51.040;14.414;2022-10-16T15:51:13;15.73;;;10.18;;
45760;SDS011;31471;51.040;14.414;2022-10-16T15:56:05;15.88;;;11.18;;
45760;SDS011;31471;51.040;14.414;2022-10-16T15:58:32;12.15;;;9.27;;
45760;SDS011;31471;51.040;14.414;2022-10-16T16:00:59;10.55;;;7.80;;
45760;SDS011;31471;51.040;14.414;2022-10-16T16:03:26;8.43;;;7.13;;
45760;SDS011;31471;51.040;14.414;2022-10-16T16:05:52;6.65;;;5.63;;
45760;SDS011;31471;51.040;14.414;2022-10-16T16:08:19;5.82;;;4.82;;
45760;SDS011;31471;51.040;14.414;2022-10-16T16:13:10;5.18;;;4.15;;
45760;SDS011;31471;51.040;14.414;2022-10-16T16:18:05;8.93;;;5.18;;
45760;SDS011;31471;51.040;14.414;2022-10-16T16:22:57;19.08;;;12.80;;
45760;SDS011;31471;51.040;14.414;2022-10-16T16:27:48;11.35;;;9.38;;
45760;SDS011;31471;51.040;14.414;2022-10-16T16:32:39;7.80;;;6.28;;
45760;SDS011;31471;51.040;14.414;2022-10-16T16:37:31;7.68;;;5.13;;
45760;SDS011;31471;51.040;14.414;2022-10-16T16:42:24;6.75;;;4.60;;
45760;SDS011;31471;51.040;14.414;2022-10-16T16:44:53;14.82;;;11.45;;
45760;SDS011;31471;51.040;14.414;2022-10-16T16:47:19;14.45;;;10.45;;
45760;SDS011;31471;51.040;14.414;2022-10-16T16:52:11;38.28;;;22.17;;
45760;SDS011;31471;51.040;14.414;2022-10-16T16:54:38;39.83;;;23.60;;
45760;SDS011;31471;51.040;14.414;2022-10-16T16:59:29;45.85;;;26.42;;
45760;SDS011;31471;51.040;14.414;2022-10-16T17:01:58;41.00;;;23.75;;
45760;SDS011;31471;51.040;14.414;2022-10-16T17:04:27;38.90;;;20.55;;
45760;SDS011;31471;51.040;14.414;2022-10-16T17:09:19;15.95;;;11.32;;
45760;SDS011;31471;51.040;14.414;2022-10-16T17:14:11;9.67;;;6.80;;
45760;SDS011;31471;51.040;14.414;2022-10-16T17:19:05;11.52;;;7.38;;
45760;SDS011;31471;51.040;14.414;2022-10-16T17:21:32;9.30;;;6.13;;
45760;SDS011;31471;51.040;14.414;2022-10-16T17:23:58;9.18;;;6.47;;
45760;SDS011;31471;51.040;14.414;2022-10-16T17:26:25;9.73;;;7.85;;
45760;SDS011;31471;51.040;14.414;2022-10-16T17:28:55;11.02;;;8.60;;
45760;SDS011;31471;51.040;14.414;2022-10-16T17:31:24;8.02;;;6.53;;
45760;SDS011;31471;51.040;14.414;2022-10-16T17:33:52;8.13;;;7.15;;
45760;SDS011;31471;51.040;14.414;2022-10-16T17:38:44;10.32;;;7.50;;
45760;SDS011;31471;51.040;14.414;2022-10-16T17:43:39;7.63;;;5.40;;
45760;SDS011;31471;51.040;14.414;2022-10-16T17:46:06;8.45;;;6.05;;
45760;SDS011;31471;51.040;14.414;2022-10-16T17:48:40;8.90;;;6.55;;
45760;SDS011;31471;51.040;14.414;2022-10-16T17:51:08;9.63;;;6.65;;
45760;SDS011;31471;51.040;14.414;2022-10-16T17:53:35;8.20;;;7.18;;
45760;SDS011;31471;51.040;14.414;2022-10-16T17:56:08;10.90;;;7.95;;
45760;SDS011;31471;51.040;14.414;2022-10-16T17:58:38;10.57;;;8.10;;
45760;SDS011;31471;51.040;14.414;2022-10-16T18:01:14;11.68;;;8.25;;
45760;SDS011;31471;51.040;14.414;2022-10-16T18:03:41;9.38;;;8.02;;
45760;SDS011;31471;51.040;14.414;2022-10-16T18:06:06;11.07;;;8.43;;
45760;SDS011;31471;51.040;14.414;2022-10-16T18:08:32;11.02;;;8.05;;
45760;SDS011;31471;51.040;14.414;2022-10-16T18:11:00;14.95;;;9.30;;
45760;SDS011;31471;51.040;14.414;2022-10-16T18:13:26;10.60;;;8.10;;